Time;durP1;ratioP1;P1;durP2;ratioP2;P2;SDS_P1;SDS_P2;PMS_P1;PMS_P2;Temp;Humidity;BMP_temperature;BMP_pressure;BME280_temperature;BME280_humidity;BME280_pressure;Samples;Min_cycle;Max_cycle;Signal;HPM_P1;HPM_P2
2021/07/21 00:00:36;;;;;;;;;;;;;;;9.04;69.03;66284.75;5134499;27;19931;-71
2021/07/21 00:03:03;;;;;;;;;;;;;;;9.02;70.00;66282.28;5133918;27;19927;-71
2021/07/21 00:05:30;;;;;;;;;;;;;;;8.99;70.47;66278.78;5134224;27;19940;-71
2021/07/21 00:07:57;;;;;;;;;;;;;;;8.95;70.50;66274.47;5133837;27;19923;-71
2021/07/21 00:10:25;;;;;;;;;;;;;;;8.91;69.91;66270.03;5134370;27;19923;-71
2021/07/21 00:15:38;;;;;;;;;;;;;;;8.81;71.32;66259.66;5134052;27;20012;-72
2021/07/21 00:18:15;;;;;;;;;;;;;;;8.77;71.95;66254.50;5133548;27;20014;-71
2021/07/21 00:20:44;;;;;;;;;;;;;;;8.72;70.75;66249.47;5134204;27;19955;-71
2021/07/21 00:23:11;;;;;;;;;;;;;;;8.68;70.49;66244.50;5134172;27;19936;-71
2021/07/21 00:25:37;;;;;;;;;;;;;;;8.63;73.12;66239.06;5133713;27;20381;-71
2021/07/21 00:28:05;;;;;;;;;;;;;;;8.58;70.55;66233.94;5133783;27;19937;-71
2021/07/21 00:30:32;;;;;;;;;;;;;;;8.55;70.57;66229.84;5134096;27;19930;-71
2021/07/21 00:32:58;;;;;;;;;;;;;;;8.50;70.80;66224.88;5133487;27;19924;-71
2021/07/21 00:35:25;;;;;;;;;;;;;;;8.46;70.44;66219.69;5133828;27;19924;-71
2021/07/21 00:37:52;;;;;;;;;;;;;;;8.42;69.71;66215.56;5133394;27;20403;-71
2021/07/21 00:40:19;;;;;;;;;;;;;;;8.38;69.26;66211.22;5133918;27;19923;-72
2021/07/21 00:42:46;;;;;;;;;;;;;;;8.33;71.33;66205.78;5133304;27;19924;-71
2021/07/21 00:45:14;;;;;;;;;;;;;;;8.28;72.63;66199.50;5133796;27;19930;-71
2021/07/21 00:47:41;;;;;;;;;;;;;;;8.23;73.67;66193.53;5133403;27;19923;-71
2021/07/21 00:50:08;;;;;;;;;;;;;;;8.18;70.62;66188.50;5133611;27;19923;-71
2021/07/21 00:52:35;;;;;;;;;;;;;;;8.14;70.29;66184.38;5133108;28;19930;-71
2021/07/21 00:55:02;;;;;;;;;;;;;;;8.12;69.42;66181.59;5133171;28;19923;-71
2021/07/21 00:57:29;;;;;;;;;;;;;;;8.08;71.56;66177.00;5133688;28;19923;-71
2021/07/21 00:59:56;;;;;;;;;;;;;;;8.03;73.42;66172.19;5133148;28;19923;-71
2021/07/21 01:02:24;;;;;;;;;;;;;;;7.99;74.38;66167.03;5133669;28;19930;-71
2021/07/21 01:04:51;;;;;;;;;;;;;;;7.94;74.27;66161.63;5133168;28;19927;-71
2021/07/21 01:07:18;;;;;;;;;;;;;;;7.89;76.32;66156.50;5133462;28;19930;-71
2021/07/21 01:09:45;;;;;;;;;;;;;;;7.84;76.75;66151.50;5133526;28;19931;-71
2021/07/21 01:12:17;;;;;;;;;;;;;;;7.80;75.75;66146.25;5133591;28;19931;-71
2021/07/21 01:14:47;;;;;;;;;;;;;;;7.74;74.74;66140.63;5133179;28;19930;-71
2021/07/21 01:17:16;;;;;;;;;;;;;;;7.68;77.00;66133.53;5133537;28;19927;-72
2021/07/21 01:20:04;;;;;;;;;;;;;;;7.64;72.35;66129.50;5133462;28;19923;-71
2021/07/21 01:22:35;;;;;;;;;;;;;;;7.61;70.98;66126.31;5090397;28;19942;-71
2021/07/21 01:25:12;;;;;;;;;;;;;;;7.59;72.20;66123.38;5133303;28;19924;-71
2021/07/21 01:27:42;;;;;;;;;;;;;;;7.56;71.62;66120.34;5133339;28;20369;-71
2021/07/21 01:30:11;;;;;;;;;;;;;;;7.54;71.12;66117.81;5133836;27;19931;-71
2021/07/21 01:32:39;;;;;;;;;;;;;;;7.50;73.29;66113.78;5137437;27;19931;-71
2021/07/21 01:35:10;;;;;;;;;;;;;;;7.46;76.69;66109.25;5137101;27;19927;-71
2021/07/21 01:37:38;;;;;;;;;;;;;;;7.41;77.17;66103.81;5137098;27;19930;-71
2021/07/21 01:40:07;;;;;;;;;;;;;;;7.36;78.07;66098.28;5136899;27;19934;-72
2021/07/21 01:42:34;;;;;;;;;;;;;;;7.31;77.89;66092.78;5136807;27;19931;-71
2021/07/21 01:45:04;;;;;;;;;;;;;;;7.26;80.51;66087.63;5136855;27;19942;-71
2021/07/21 01:47:33;;;;;;;;;;;;;;;7.23;79.00;66083.28;5137309;27;20231;-72
2021/07/21 01:50:02;;;;;;;;;;;;;;;7.20;76.64;66080.97;5136743;27;19923;-71
2021/07/21 01:52:29;;;;;;;;;;;;;;;7.19;75.06;66079.84;5136498;27;20446;-71
2021/07/21 01:54:57;;;;;;;;;;;;;;;7.19;75.08;66078.97;5136701;27;19923;-72
2021/07/21 01:57:24;;;;;;;;;;;;;;;7.19;72.87;66078.69;5137257;27;20281;-71
2021/07/21 01:59:51;;;;;;;;;;;;;;;7.19;74.95;66079.44;5136209;27;20009;-71
2021/07/21 02:02:22;;;;;;;;;;;;;;;7.20;76.03;66080.41;5136746;27;19923;-71
2021/07/21 02:04:49;;;;;;;;;;;;;;;7.21;72.62;66081.38;5136248;27;20297;-71
2021/07/21 02:07:16;;;;;;;;;;;;;;;7.23;73.90;66084.03;5136697;27;20380;-72
2021/07/21 02:09:44;;;;;;;;;;;;;;;7.24;76.86;66085.13;5136303;27;19930;-72
2021/07/21 02:12:10;;;;;;;;;;;;;;;7.26;75.73;66087.50;5136482;27;19924;-71
2021/07/21 02:14:37;;;;;;;;;;;;;;;7.27;71.70;66088.22;5136575;27;19923;-71
2021/07/21 02:17:04;;;;;;;;;;;;;;;7.26;73.99;66087.69;5136375;27;19930;-71
2021/07/21 02:19:33;;;;;;;;;;;;;;;7.28;71.00;66089.34;5136130;27;19927;-72
2021/07/21 02:22:00;;;;;;;;;;;;;;;7.29;69.67;66090.75;5136592;27;19923;-71
2021/07/21 02:24:27;;;;;;;;;;;;;;;7.29;70.41;66090.88;5136066;27;20285;-71
2021/07/21 02:26:54;;;;;;;;;;;;;;;7.28;75.40;66090.00;5135855;27;19924;-72
2021/07/21 02:29:22;;;;;;;;;;;;;;;7.27;74.58;66088.91;5135858;27;20313;-72
2021/07/21 02:31:54;;;;;;;;;;;;;;;7.27;75.38;66087.91;5135698;27;19927;-72
2021/07/21 02:34:23;;;;;;;;;;;;;;;7.28;71.70;66089.44;5136268;27;19927;-72
2021/07/21 02:36:51;;;;;;;;;;;;;;;7.31;69.25;66092.59;5135933;27;19931;-72
2021/07/21 02:39:18;;;;;;;;;;;;;;;7.34;72.42;66095.47;5136120;27;19923;-72
2021/07/21 02:41:45;;;;;;;;;;;;;;;7.36;73.08;66097.53;5135492;27;20403;-72
2021/07/21 02:44:11;;;;;;;;;;;;;;;7.39;69.59;66101.00;5135727;27;19931;-73
2021/07/21 02:46:39;;;;;;;;;;;;;;;7.41;69.66;66103.94;5135613;27;19930;-71
2021/07/21 02:49:05;;;;;;;;;;;;;;;7.44;70.07;66106.31;5135691;27;19930;-72
2021/07/21 02:51:34;;;;;;;;;;;;;;;7.46;73.14;66108.84;5135702;27;19924;-72
2021/07/21 02:54:08;;;;;;;;;;;;;;;7.49;71.03;66112.88;5135031;27;19927;-72
2021/07/21 02:56:38;;;;;;;;;;;;;;;7.53;72.90;66116.75;5135880;27;19924;-72
2021/07/21 02:59:10;;;;;;;;;;;;;;;7.57;71.82;66121.50;5135411;27;19934;-72
2021/07/21 03:01:39;;;;;;;;;;;;;;;7.61;73.40;66126.69;5135410;27;20297;-72
2021/07/21 03:04:06;;;;;;;;;;;;;;;7.66;72.08;66131.81;5135365;27;19946;-72
2021/07/21 03:06:34;;;;;;;;;;;;;;;7.70;71.70;66136.63;5135214;27;20297;-72
2021/07/21 03:09:03;;;;;;;;;;;;;;;7.76;71.69;66142.59;5135206;27;19993;-72
2021/07/21 03:11:30;;;;;;;;;;;;;;;7.82;69.25;66150.00;5135175;27;20377;-72
2021/07/21 03:13:59;;;;;;;;;;;;;;;7.89;70.26;66158.06;5135299;27;19961;-72
2021/07/21 03:16:28;;;;;;;;;;;;;;;7.97;69.97;66166.50;5134978;27;19930;-72
2021/07/21 03:18:57;;;;;;;;;;;;;;;8.05;70.54;66175.53;5134701;27;19923;-72
2021/07/21 03:21:24;;;;;;;;;;;;;;;8.14;69.28;66185.50;5134998;27;19924;-72
2021/07/21 03:23:51;;;;;;;;;;;;;;;8.24;68.52;66196.94;5134640;27;19923;-72
2021/07/21 03:26:20;;;;;;;;;;;;;;;8.35;67.55;66209.38;5135022;27;19923;-72
2021/07/21 03:28:48;;;;;;;;;;;;;;;8.46;67.58;66221.91;5134938;27;19930;-71
2021/07/21 03:31:15;;;;;;;;;;;;;;;8.57;68.27;66234.53;5135050;27;19923;-71
2021/07/21 03:33:44;;;;;;;;;;;;;;;8.69;68.26;66247.66;5134818;27;19928;-71
2021/07/21 03:36:12;;;;;;;;;;;;;;;8.80;66.21;66260.75;5134446;27;20385;-71
2021/07/21 03:38:40;;;;;;;;;;;;;;;8.93;65.08;66275.28;5134771;27;19929;-71
2021/07/21 03:41:06;;;;;;;;;;;;;;;9.05;64.97;66289.09;5134639;27;19932;-72
2021/07/21 03:43:36;;;;;;;;;;;;;;;9.17;65.41;66302.13;5134504;27;20384;-71
2021/07/21 03:46:03;;;;;;;;;;;;;;;9.28;62.81;66314.66;5134609;27;19927;-71
2021/07/21 03:48:29;;;;;;;;;;;;;;;9.39;64.60;66326.59;5134930;27;19930;-71
2021/07/21 03:50:57;;;;;;;;;;;;;;;9.49;62.80;66338.16;5134126;27;20386;-72
2021/07/21 03:53:24;;;;;;;;;;;;;;;9.58;65.29;66348.75;5133505;27;19923;-71
2021/07/21 03:55:51;;;;;;;;;;;;;;;9.68;64.42;66359.19;5134101;27;20397;-71
2021/07/21 03:58:18;;;;;;;;;;;;;;;9.76;64.82;66368.38;5134266;27;19923;-71
2021/07/21 04:00:46;;;;;;;;;;;;;;;9.84;64.14;66377.00;5134241;27;19924;-72
2021/07/21 04:03:13;;;;;;;;;;;;;;;9.91;63.49;66385.91;5134295;27;19934;-71
2021/07/21 04:05:39;;;;;;;;;;;;;;;9.98;64.71;66394.19;5134165;27;19930;-72
2021/07/21 04:08:07;;;;;;;;;;;;;;;10.06;63.18;66402.72;5133811;27;19923;-72
2021/07/21 04:10:33;;;;;;;;;;;;;;;10.12;63.76;66409.34;5134067;27;19924;-72
2021/07/21 04:13:03;;;;;;;;;;;;;;;10.18;64.67;66415.75;5134083;27;19930;-72
2021/07/21 04:15:30;;;;;;;;;;;;;;;10.23;64.32;66421.72;5134190;27;20434;-72
2021/07/21 04:17:59;;;;;;;;;;;;;;;10.29;64.62;66427.84;5133683;27;20184;-72
2021/07/21 04:20:26;;;;;;;;;;;;;;;10.34;63.93;66434.09;5133852;27;19923;-72
2021/07/21 04:22:54;;;;;;;;;;;;;;;10.40;63.01;66440.50;5133613;27;19942;-72
2021/07/21 04:25:21;;;;;;;;;;;;;;;10.45;64.36;66445.78;5133834;27;20424;-72
2021/07/21 04:27:47;;;;;;;;;;;;;;;10.50;63.06;66451.06;5133987;27;19946;-72
2021/07/21 04:30:14;;;;;;;;;;;;;;;10.55;63.44;66456.47;5134057;27;19931;-71
2021/07/21 04:32:41;;;;;;;;;;;;;;;10.60;63.79;66462.19;5133598;27;19923;-72
2021/07/21 04:35:11;;;;;;;;;;;;;;;10.65;61.62;66468.16;5133447;27;19931;-72
2021/07/21 04:37:39;;;;;;;;;;;;;;;10.71;62.06;66474.53;5133554;27;19923;-71
2021/07/21 04:40:07;;;;;;;;;;;;;;;10.77;61.36;66481.13;5133383;27;19930;-71
2021/07/21 04:42:33;;;;;;;;;;;;;;;10.83;63.83;66487.66;5133939;27;19949;-72
2021/07/21 04:45:00;;;;;;;;;;;;;;;10.89;61.41;66494.91;5133315;27;20396;-70
2021/07/21 04:47:27;;;;;;;;;;;;;;;10.95;61.24;66502.19;5133554;27;19923;-70
2021/07/21 04:49:54;;;;;;;;;;;;;;;11.02;61.96;66509.41;5133284;27;19934;-70
2021/07/21 04:52:24;;;;;;;;;;;;;;;11.08;61.13;66516.31;5133614;28;19923;-70
2021/07/21 04:54:50;;;;;;;;;;;;;;;11.16;62.04;66524.69;5133462;28;19927;-70
2021/07/21 04:57:18;;;;;;;;;;;;;;;11.24;61.62;66534.03;5133332;28;20388;-71
2021/07/21 04:59:45;;;;;;;;;;;;;;;11.32;61.12;66543.09;5133694;28;19928;-71
2021/07/21 05:02:11;;;;;;;;;;;;;;;11.41;60.02;66552.56;5133157;28;19923;-71
2021/07/21 05:04:38;;;;;;;;;;;;;;;11.49;60.60;66562.47;5133313;27;20397;-70
2021/07/21 05:07:05;;;;;;;;;;;;;;;11.58;60.71;66572.06;5137518;27;19927;-71
2021/07/21 05:09:33;;;;;;;;;;;;;;;11.68;60.15;66582.66;5137534;27;20389;-71
2021/07/21 05:11:59;;;;;;;;;;;;;;;11.75;62.58;66591.25;5137275;27;19923;-71
2021/07/21 05:14:26;;;;;;;;;;;;;;;11.84;59.32;66601.47;5137738;27;19924;-72
2021/07/21 05:16:52;;;;;;;;;;;;;;;11.94;60.35;66611.78;5137126;27;19923;-71
2021/07/21 05:19:19;;;;;;;;;;;;;;;12.03;58.74;66622.00;5137310;27;20289;-71
2021/07/21 05:21:45;;;;;;;;;;;;;;;12.11;59.33;66631.84;5137988;27;19931;-70
2021/07/21 05:24:12;;;;;;;;;;;;;;;12.19;59.33;66641.16;5137395;27;19923;-71
2021/07/21 05:26:41;;;;;;;;;;;;;;;12.28;59.10;66650.66;5137576;27;19930;-72
2021/07/21 05:29:08;;;;;;;;;;;;;;;12.37;58.44;66660.66;5136984;27;19927;-71
2021/07/21 05:31:34;;;;;;;;;;;;;;;12.46;57.62;66670.53;5137336;27;19923;-71
2021/07/21 05:34:01;;;;;;;;;;;;;;;12.55;58.91;66680.69;5136848;27;20297;-71
2021/07/21 05:36:31;;;;;;;;;;;;;;;12.63;57.09;66689.91;5137409;27;19924;-72
2021/07/21 05:38:57;;;;;;;;;;;;;;;12.70;58.48;66697.56;5136725;27;20377;-71
2021/07/21 05:41:24;;;;;;;;;;;;;;;12.77;58.30;66705.28;5137070;27;19927;-71
2021/07/21 05:43:52;;;;;;;;;;;;;;;12.83;58.68;66712.25;5136998;27;19931;-71
2021/07/21 05:46:18;;;;;;;;;;;;;;;12.88;58.15;66717.38;5137173;27;19946;-71
2021/07/21 05:48:45;;;;;;;;;;;;;;;12.91;58.61;66721.19;5137087;27;19923;-71
2021/07/21 05:51:11;;;;;;;;;;;;;;;12.95;57.76;66726.09;5136547;27;19930;-71
2021/07/21 05:53:38;;;;;;;;;;;;;;;12.99;59.26;66730.50;5136563;27;20395;-71
2021/07/21 05:56:05;;;;;;;;;;;;;;;13.04;59.32;66736.13;5136672;27;19929;-71
2021/07/21 05:58:32;;;;;;;;;;;;;;;13.10;58.64;66742.84;5136982;27;19976;-72
2021/07/21 06:01:00;;;;;;;;;;;;;;;13.16;58.02;66749.34;5136375;27;20289;-71
2021/07/21 06:03:26;;;;;;;;;;;;;;;13.22;56.01;66756.22;5136773;27;19924;-72
2021/07/21 06:05:53;;;;;;;;;;;;;;;13.27;57.12;66762.06;5136352;27;19931;-71
2021/07/21 06:08:19;;;;;;;;;;;;;;;13.33;56.96;66768.50;5136622;27;19923;-71
2021/07/21 06:10:46;;;;;;;;;;;;;;;13.39;56.99;66774.97;5136579;27;19923;-71
2021/07/21 06:13:13;;;;;;;;;;;;;;;13.44;55.87;66780.94;5136694;27;19923;-71
2021/07/21 06:15:40;;;;;;;;;;;;;;;13.49;56.56;66786.41;5135588;27;19953;-71
2021/07/21 06:18:08;;;;;;;;;;;;;;;13.54;57.76;66791.53;5135929;27;20387;-71
2021/07/21 06:20:35;;;;;;;;;;;;;;;13.58;56.40;66796.44;5136101;27;20284;-71
2021/07/21 06:23:02;;;;;;;;;;;;;;;13.60;57.01;66799.09;5135913;27;20297;-71
2021/07/21 06:25:29;;;;;;;;;;;;;;;13.63;56.59;66801.59;5136319;27;19923;-71
2021/07/21 06:27:55;;;;;;;;;;;;;;;13.66;57.20;66805.50;5136009;27;19930;-71
2021/07/21 06:30:22;;;;;;;;;;;;;;;13.69;56.50;66808.22;5136378;27;19931;-71
2021/07/21 06:32:48;;;;;;;;;;;;;;;13.72;56.21;66811.91;5135592;27;19924;-71
2021/07/21 06:35:16;;;;;;;;;;;;;;;13.75;57.17;66814.84;5135767;27;20393;-71
2021/07/21 06:37:43;;;;;;;;;;;;;;;13.77;58.00;66817.47;5135902;27;19923;-71
2021/07/21 06:40:10;;;;;;;;;;;;;;;13.79;57.55;66820.44;5135908;27;19930;-71
2021/07/21 06:42:37;;;;;;;;;;;;;;;13.82;58.51;66823.09;5135852;27;19931;-72
2021/07/21 06:45:04;;;;;;;;;;;;;;;13.85;58.37;66826.72;5135508;27;20373;-71
2021/07/21 06:47:30;;;;;;;;;;;;;;;13.89;58.31;66830.94;5135953;27;19924;-71
2021/07/21 06:49:57;;;;;;;;;;;;;;;13.92;57.91;66835.13;5135378;27;19931;-71
2021/07/21 06:52:25;;;;;;;;;;;;;;;13.96;58.45;66839.00;5135840;27;19927;-70
2021/07/21 06:54:52;;;;;;;;;;;;;;;14.00;57.92;66843.88;5135264;27;19930;-72
2021/07/21 06:57:19;;;;;;;;;;;;;;;14.04;56.66;66848.38;5135471;27;20426;-71
2021/07/21 06:59:45;;;;;;;;;;;;;;;14.10;54.70;66854.75;5135317;27;20412;-71
2021/07/21 07:02:12;;;;;;;;;;;;;;;14.18;53.68;66864.00;5135733;27;19923;-71
2021/07/21 07:04:39;;;;;;;;;;;;;;;14.28;53.94;66875.03;5135520;27;19945;-71
2021/07/21 07:07:06;;;;;;;;;;;;;;;14.36;54.40;66884.72;5135314;27;19924;-71
2021/07/21 07:09:34;;;;;;;;;;;;;;;14.45;52.98;66893.94;5135620;27;19931;-71
2021/07/21 07:12:00;;;;;;;;;;;;;;;14.56;51.56;66906.75;5135083;27;19923;-71
2021/07/21 07:14:27;;;;;;;;;;;;;;;14.66;49.29;66917.91;5135226;27;19931;-71
2021/07/21 07:16:53;;;;;;;;;;;;;;;14.78;50.37;66930.78;5134974;27;19924;-71
2021/07/21 07:19:20;;;;;;;;;;;;;;;14.93;49.82;66947.56;5135364;27;19923;-71
2021/07/21 07:21:46;;;;;;;;;;;;;;;15.03;50.60;66959.31;5135288;27;19931;-72
2021/07/21 07:24:13;;;;;;;;;;;;;;;15.17;49.54;66974.22;5135240;27;19923;-71
2021/07/21 07:26:41;;;;;;;;;;;;;;;15.26;51.01;66984.72;5134942;27;20366;-72
2021/07/21 07:29:08;;;;;;;;;;;;;;;15.36;50.31;66995.59;5133684;27;19927;-71
2021/07/21 07:31:34;;;;;;;;;;;;;;;15.50;48.52;67010.97;5135033;27;19923;-71
2021/07/21 07:34:01;;;;;;;;;;;;;;;15.69;45.34;67032.63;5134493;27;19924;-71
2021/07/21 07:36:28;;;;;;;;;;;;;;;15.90;45.08;67056.44;5135005;27;19924;-71
2021/07/21 07:38:54;;;;;;;;;;;;;;;16.13;43.52;67082.63;5134387;27;20420;-72
2021/07/21 07:41:21;;;;;;;;;;;;;;;16.31;44.29;67102.47;5134710;27;19924;-71
2021/07/21 07:43:49;;;;;;;;;;;;;;;16.49;44.44;67123.06;5134615;27;19988;-72
2021/07/21 07:46:16;;;;;;;;;;;;;;;16.67;43.79;67143.22;5134802;27;19950;-72
2021/07/21 07:48:43;;;;;;;;;;;;;;;16.86;43.81;67164.41;5134405;27;20421;-71
2021/07/21 07:51:09;;;;;;;;;;;;;;;16.98;43.78;67178.84;5134374;27;19931;-72
2021/07/21 07:53:36;;;;;;;;;;;;;;;17.13;43.35;67194.75;5134194;27;19927;-72
2021/07/21 07:56:02;;;;;;;;;;;;;;;17.28;42.14;67212.72;5134487;27;19930;-71
2021/07/21 07:58:29;;;;;;;;;;;;;;;17.45;41.71;67231.25;5134354;27;19923;-72
2021/07/21 08:00:57;;;;;;;;;;;;;;;17.67;39.01;67256.44;5134080;27;20290;-72
2021/07/21 08:03:24;;;;;;;;;;;;;;;17.88;39.51;67280.03;5134498;27;19924;-71
2021/07/21 08:05:54;;;;;;;;;;;;;;;18.02;40.83;67294.97;5133831;27;19931;-71
2021/07/21 08:08:20;;;;;;;;;;;;;;;18.08;42.35;67301.94;5134306;27;19923;-72
2021/07/21 08:10:47;;;;;;;;;;;;;;;18.20;42.12;67315.22;5134391;27;19923;-71
2021/07/21 08:13:13;;;;;;;;;;;;;;;18.32;43.30;67328.59;5134037;27;19924;-71
2021/07/21 08:15:40;;;;;;;;;;;;;;;18.43;42.08;67341.75;5134180;27;19923;-72
2021/07/21 08:18:08;;;;;;;;;;;;;;;18.58;40.65;67358.19;5133728;27;20377;-71
2021/07/21 08:20:35;;;;;;;;;;;;;;;18.74;40.06;67376.81;5133863;27;19996;-71
2021/07/21 08:23:01;;;;;;;;;;;;;;;18.89;38.20;67393.63;5133869;27;19930;-71
2021/07/21 08:25:28;;;;;;;;;;;;;;;19.03;38.43;67409.03;5134079;27;19923;-71
2021/07/21 08:27:54;;;;;;;;;;;;;;;19.11;40.54;67417.47;5133489;27;20369;-71
2021/07/21 08:30:21;;;;;;;;;;;;;;;19.23;38.30;67431.06;5133998;27;19923;-71
2021/07/21 08:32:49;;;;;;;;;;;;;;;19.42;37.64;67452.06;5133732;27;20281;-71
2021/07/21 08:35:17;;;;;;;;;;;;;;;19.61;37.32;67473.41;5133866;27;19930;-71
2021/07/21 08:37:44;;;;;;;;;;;;;;;19.74;37.31;67488.81;5133925;27;19924;-71
2021/07/21 08:40:12;;;;;;;;;;;;;;;19.90;37.04;67506.50;5133429;27;19930;-71
2021/07/21 08:42:39;;;;;;;;;;;;;;;19.97;39.25;67514.78;5133543;27;20385;-71
2021/07/21 08:45:06;;;;;;;;;;;;;;;20.14;37.70;67533.88;5133485;27;19927;-71
2021/07/21 08:47:33;;;;;;;;;;;;;;;20.25;37.75;67545.22;5133439;27;20303;-71
2021/07/21 08:50:00;;;;;;;;;;;;;;;20.28;39.47;67549.75;5133201;27;19930;-71
2021/07/21 08:52:29;;;;;;;;;;;;;;;20.31;40.11;67552.97;5133447;27;19934;-70
2021/07/21 08:54:58;;;;;;;;;;;;;;;20.34;41.09;67555.44;5133201;28;19923;-72
2021/07/21 08:57:25;;;;;;;;;;;;;;;20.36;40.09;67558.13;5133319;28;19977;-72
2021/07/21 08:59:52;;;;;;;;;;;;;;;20.49;37.51;67572.47;5133027;28;19924;-70
2021/07/21 09:02:19;;;;;;;;;;;;;;;20.59;36.96;67584.00;5133681;28;19924;-70
2021/07/21 09:04:46;;;;;;;;;;;;;;;20.66;36.43;67592.94;5133216;28;20373;-71
2021/07/21 09:07:12;;;;;;;;;;;;;;;20.79;37.17;67606.84;5133675;28;19930;-71
2021/07/21 09:09:40;;;;;;;;;;;;;;;20.88;37.79;67617.06;5133251;28;19930;-71
2021/07/21 09:12:08;;;;;;;;;;;;;;;20.92;38.70;67622.09;5133297;28;19927;-71
2021/07/21 09:14:35;;;;;;;;;;;;;;;20.88;41.06;67616.69;5133576;28;19927;-70
2021/07/21 09:17:05;;;;;;;;;;;;;;;20.86;40.69;67615.06;5132933;28;20370;-70
2021/07/21 09:19:32;;;;;;;;;;;;;;;20.88;39.62;67617.00;5133523;28;20381;-70
2021/07/21 09:22:12;;;;;;;;;;;;;;;20.84;39.84;67612.94;5133379;28;19923;-73
2021/07/21 09:24:40;;;;;;;;;;;;;;;20.74;42.77;67601.72;5133285;28;19969;-71
2021/07/21 09:27:06;;;;;;;;;;;;;;;20.65;43.96;67590.59;5132899;28;20293;-71
2021/07/21 09:29:33;;;;;;;;;;;;;;;20.54;44.68;67578.91;5133242;28;19923;-70
2021/07/21 09:32:00;;;;;;;;;;;;;;;20.52;41.37;67575.81;5133183;28;19923;-70
2021/07/21 09:34:27;;;;;;;;;;;;;;;20.61;39.71;67585.81;5133292;28;19927;-71
2021/07/21 09:37:00;;;;;;;;;;;;;;;20.71;37.66;67597.31;5132763;28;19976;-71
2021/07/21 09:39:31;;;;;;;;;;;;;;;20.77;39.20;67604.66;5133024;28;19931;-70
2021/07/21 09:41:59;;;;;;;;;;;;;;;20.86;37.91;67614.50;5132805;28;19935;-70
2021/07/21 09:44:32;;;;;;;;;;;;;;;20.93;38.13;67622.66;5132903;28;19924;-70
2021/07/21 09:47:08;;;;;;;;;;;;;;;21.03;35.92;67634.31;5133093;28;20330;-71
2021/07/21 09:49:35;;;;;;;;;;;;;;;21.10;37.15;67642.50;5133006;28;19930;-71
2021/07/21 09:52:13;;;;;;;;;;;;;;;21.24;35.34;67657.34;5134784;27;19923;-72
2021/07/21 09:54:40;;;;;;;;;;;;;;;21.31;37.36;67665.63;5136600;27;20039;-71
2021/07/21 09:57:13;;;;;;;;;;;;;;;21.34;39.23;67668.75;5136871;27;19923;-70
2021/07/21 09:59:39;;;;;;;;;;;;;;;21.32;40.19;67666.75;5137103;27;19927;-70
2021/07/21 10:02:14;;;;;;;;;;;;;;;21.39;37.30;67674.38;5136412;27;20296;-70
2021/07/21 10:04:44;;;;;;;;;;;;;;;21.38;40.87;67673.06;5136490;27;20407;-70
2021/07/21 10:07:26;;;;;;;;;;;;;;;21.41;39.42;67677.63;5136488;27;19930;-70
2021/07/21 10:09:53;;;;;;;;;;;;;;;21.57;35.65;67694.44;5136523;27;19930;-70
2021/07/21 10:12:21;;;;;;;;;;;;;;;21.72;34.56;67711.56;5136246;27;19924;-71
2021/07/21 10:14:55;;;;;;;;;;;;;;;21.77;38.05;67717.31;5136610;27;19927;-71
2021/07/21 10:17:21;;;;;;;;;;;;;;;21.78;39.89;67718.03;5136630;27;19930;-70
2021/07/21 10:19:48;;;;;;;;;;;;;;;21.82;39.13;67723.06;5136116;27;19927;-70
2021/07/21 10:22:15;;;;;;;;;;;;;;;21.89;37.00;67730.91;5136300;27;20385;-70
2021/07/21 10:24:41;;;;;;;;;;;;;;;21.90;36.41;67732.03;5136488;27;19938;-70
2021/07/21 10:27:09;;;;;;;;;;;;;;;21.96;35.43;67738.19;5135759;27;19927;-70
2021/07/21 10:29:37;;;;;;;;;;;;;;;21.93;36.21;67734.81;5136000;27;19945;-70
2021/07/21 10:32:05;;;;;;;;;;;;;;;21.92;36.19;67734.09;5135706;27;19924;-70
2021/07/21 10:34:31;;;;;;;;;;;;;;;21.98;34.28;67740.31;5136321;27;19930;-70
2021/07/21 10:36:58;;;;;;;;;;;;;;;21.94;36.54;67736.13;5135673;27;19927;-70
2021/07/21 10:39:25;;;;;;;;;;;;;;;21.89;37.02;67730.06;5136050;27;19935;-71
2021/07/21 10:41:52;;;;;;;;;;;;;;;21.89;35.92;67730.63;5135499;27;19923;-71
2021/07/21 10:44:19;;;;;;;;;;;;;;;21.91;36.16;67733.03;5136080;27;19923;-70
2021/07/21 10:46:48;;;;;;;;;;;;;;;21.83;38.31;67724.31;5135722;27;20309;-71
2021/07/21 10:49:27;;;;;;;;;;;;;;;21.70;40.08;67709.44;5135392;27;19923;-70
2021/07/21 10:52:29;;;;;;;;;;;;;;;21.51;42.47;67687.81;5135342;27;19923;-70
2021/07/21 10:54:58;;;;;;;;;;;;;;;21.29;43.43;67663.34;5135652;27;19943;-70
2021/07/21 11:00:11;;;;;;;;;;;;;;;20.87;43.37;67615.84;5135342;27;19930;-72
2021/07/21 11:02:39;;;;;;;;;;;;;;;20.67;44.05;67593.09;5135526;27;19935;-71
2021/07/21 11:05:09;;;;;;;;;;;;;;;20.43;45.51;67565.94;5135289;27;19950;-70
2021/07/21 11:07:56;;;;;;;;;;;;;;;20.21;45.65;67540.81;5135267;27;19923;-70
2021/07/21 11:10:33;;;;;;;;;;;;;;;20.00;45.38;67517.03;5126776;27;19923;-70
2021/07/21 11:13:00;;;;;;;;;;;;;;;19.86;44.20;67501.31;5135140;27;19924;-70
2021/07/21 11:15:36;;;;;;;;;;;;;;;19.72;44.36;67484.94;5135040;27;20408;-71
2021/07/21 11:18:18;;;;;;;;;;;;;;;19.57;45.40;67468.28;5135122;27;19929;-70
2021/07/21 11:20:58;;;;;;;;;;;;;;;19.40;46.22;67448.81;5113653;27;19923;-70
2021/07/21 11:23:41;;;;;;;;;;;;;;;19.24;47.14;67431.00;5135240;27;19930;-70
2021/07/21 11:26:26;;;;;;;;;;;;;;;19.07;48.06;67412.19;5134822;27;20018;-70
2021/07/21 11:28:52;;;;;;;;;;;;;;;18.88;48.01;67390.72;5134899;27;19924;-70
2021/07/21 11:31:19;;;;;;;;;;;;;;;18.70;49.38;67369.94;5135077;27;20305;-70
2021/07/21 11:33:56;;;;;;;;;;;;;;;18.57;49.36;67355.38;5134667;27;19923;-70
2021/07/21 11:36:43;;;;;;;;;;;;;;;18.44;47.54;67340.38;5134997;27;19924;-70
2021/07/21 11:39:31;;;;;;;;;;;;;;;18.41;46.29;67337.59;5134607;27;19923;-70
2021/07/21 11:41:58;;;;;;;;;;;;;;;18.33;46.31;67328.50;5134668;27;19931;-70
2021/07/21 11:44:25;;;;;;;;;;;;;;;18.19;48.55;67312.69;5134975;27;19924;-70
2021/07/21 11:46:52;;;;;;;;;;;;;;;18.08;49.73;67299.91;5134367;27;19930;-70
2021/07/21 11:49:19;;;;;;;;;;;;;;;18.00;47.59;67292.09;5134349;27;19927;-70
2021/07/21 11:51:49;;;;;;;;;;;;;;;17.97;46.82;67288.03;5134522;27;19927;-71
2021/07/21 11:54:20;;;;;;;;;;;;;;;17.94;46.52;67284.97;5134416;27;19946;-70
2021/07/21 11:56:47;;;;;;;;;;;;;;;17.87;47.58;67277.72;5134610;27;19923;-70
2021/07/21 11:59:14;;;;;;;;;;;;;;;17.80;47.78;67269.88;5134400;27;19924;-70
2021/07/21 12:01:42;;;;;;;;;;;;;;;17.72;47.21;67260.53;5133782;27;20473;-70
2021/07/21 12:04:09;;;;;;;;;;;;;;;17.62;47.55;67248.16;5134027;27;19931;-70
2021/07/21 12:06:41;;;;;;;;;;;;;;;17.52;49.08;67236.97;5134376;27;19931;-70
2021/07/21 12:09:08;;;;;;;;;;;;;;;17.39;50.92;67222.84;5134129;27;19938;-70
2021/07/21 12:11:36;;;;;;;;;;;;;;;17.29;50.01;67211.59;5134113;27;20373;-70
2021/07/21 12:14:03;;;;;;;;;;;;;;;17.19;49.78;67199.94;5133293;27;20377;-70
2021/07/21 12:16:31;;;;;;;;;;;;;;;17.08;49.28;67187.19;5133853;27;19923;-70
2021/07/21 12:19:01;;;;;;;;;;;;;;;16.98;49.46;67175.84;5133805;27;20392;-70
2021/07/21 12:21:28;;;;;;;;;;;;;;;16.90;49.69;67166.13;5134237;27;19924;-71
2021/07/21 12:23:58;;;;;;;;;;;;;;;16.79;49.72;67154.06;5133646;27;20323;-70
2021/07/21 12:26:25;;;;;;;;;;;;;;;16.70;49.73;67144.47;5134018;27;19923;-71
2021/07/21 12:28:59;;;;;;;;;;;;;;;16.63;49.14;67135.88;5133461;27;19923;-70
2021/07/21 12:31:29;;;;;;;;;;;;;;;16.57;50.08;67128.69;5133699;27;20392;-70
2021/07/21 12:34:10;;;;;;;;;;;;;;;16.50;50.29;67121.03;5133429;27;19923;-70
2021/07/21 12:36:36;;;;;;;;;;;;;;;16.47;49.80;67118.50;5133684;27;20367;-70
2021/07/21 12:39:04;;;;;;;;;;;;;;;16.47;47.89;67118.28;5133424;27;19923;-71
2021/07/21 12:41:31;;;;;;;;;;;;;;;16.48;46.51;67119.22;5133906;27;20022;-71
2021/07/21 12:43:59;;;;;;;;;;;;;;;16.48;47.65;67119.13;5133603;27;20266;-70
2021/07/21 12:46:26;;;;;;;;;;;;;;;16.44;47.98;67115.34;5133549;27;20373;-70
2021/07/21 12:48:54;;;;;;;;;;;;;;;16.38;48.64;67107.75;5133510;27;19923;-70
2021/07/21 12:51:21;;;;;;;;;;;;;;;16.33;49.18;67102.75;5133397;27;19923;-70
2021/07/21 12:53:48;;;;;;;;;;;;;;;16.28;49.86;67097.41;5133310;27;19923;-70
2021/07/21 12:56:15;;;;;;;;;;;;;;;16.25;49.22;67093.50;5133586;28;19923;-70
2021/07/21 12:58:42;;;;;;;;;;;;;;;16.21;49.36;67088.84;5133429;28;20374;-70
2021/07/21 13:01:09;;;;;;;;;;;;;;;16.17;50.23;67084.66;5133092;28;19930;-71